createdAt,value
2023-04-02T00:00:30.237Z,0.00
2023-04-02T00:01:30.362Z,0.00
2023-04-02T00:02:31.175Z,0.00
2023-04-02T00:03:30.537Z,0.00
2023-04-02T00:04:29.467Z,0.00
2023-04-02T00:05:30.088Z,0.00
2023-04-02T00:06:29.487Z,0.00
2023-04-02T00:07:29.467Z,0.00
2023-04-02T00:08:29.485Z,0.00
2023-04-02T00:09:29.486Z,0.00
2023-04-02T00:10:29.487Z,0.00
2023-04-02T00:11:29.773Z,0.00
2023-04-02T00:12:29.907Z,0.00
2023-04-02T00:13:29.503Z,0.00
2023-04-02T00:14:29.515Z,0.00
2023-04-02T00:15:29.515Z,0.00
2023-04-02T00:16:29.971Z,0.00
2023-04-02T00:17:30.159Z,0.00
2023-04-02T00:18:30.065Z,0.00
2023-04-02T00:19:29.358Z,0.00
2023-04-02T00:20:29.572Z,0.00
2023-04-02T00:21:30.179Z,0.00
2023-04-02T00:22:29.355Z,0.00
2023-04-02T00:23:29.360Z,0.00
2023-04-02T00:24:29.403Z,0.00
2023-04-02T00:25:29.406Z,0.00
2023-04-02T00:26:29.390Z,0.00
2023-04-02T00:27:29.402Z,0.00
2023-04-02T00:28:29.525Z,0.00
2023-04-02T00:29:29.318Z,0.00
2023-04-02T00:30:29.295Z,0.00
2023-04-02T00:31:29.327Z,0.00
2023-04-02T00:32:29.319Z,0.00
2023-04-02T00:33:29.324Z,0.00
2023-04-02T00:34:29.360Z,0.00
2023-04-02T00:35:29.302Z,0.00
2023-04-02T00:36:29.244Z,0.00
2023-04-02T00:37:29.367Z,0.00
2023-04-02T00:38:29.256Z,0.00
2023-04-02T00:39:29.265Z,0.00
2023-04-02T00:40:29.275Z,0.00
2023-04-02T00:41:29.202Z,0.00
2023-04-02T00:42:29.286Z,0.00
2023-04-02T00:43:29.292Z,0.00
2023-04-02T00:44:29.514Z,0.00
2023-04-02T00:45:29.239Z,0.00
2023-04-02T00:46:29.516Z,0.00
2023-04-02T00:47:29.523Z,0.00
2023-04-02T00:48:29.511Z,0.00
2023-04-02T00:49:29.290Z,0.00
2023-04-02T00:50:29.545Z,0.00
2023-04-02T00:51:29.563Z,0.00
2023-04-02T00:52:29.363Z,0.00
2023-04-02T00:53:29.136Z,0.00
2023-04-02T00:54:29.373Z,0.00
2023-04-02T00:55:29.374Z,0.00
2023-04-02T00:56:29.131Z,0.00
2023-04-02T00:57:29.245Z,0.00
2023-04-02T00:58:29.094Z,0.00
2023-04-02T00:59:29.107Z,0.00
2023-04-02T01:00:29.207Z,0.00
2023-04-02T01:01:29.138Z,0.00
2023-04-02T01:02:29.313Z,0.00
2023-04-02T01:03:29.290Z,0.00
2023-04-02T01:04:29.077Z,0.00
2023-04-02T01:05:29.049Z,0.00
2023-04-02T01:06:29.278Z,0.00
2023-04-02T01:07:29.247Z,0.00
2023-04-02T01:08:29.028Z,0.00
2023-04-02T01:09:29.089Z,0.00
2023-04-02T01:10:29.288Z,0.00
2023-04-02T01:11:29.003Z,0.00
2023-04-02T01:12:29.020Z,0.00
2023-04-02T01:13:29.286Z,0.00
2023-04-02T01:14:29.304Z,0.00
2023-04-02T01:15:29.156Z,0.00
2023-04-02T01:16:29.041Z,0.00
2023-04-02T01:17:29.138Z,0.00
2023-04-02T01:18:29.123Z,0.00
2023-04-02T01:19:28.994Z,0.00
2023-04-02T01:20:29.156Z,0.00
2023-04-02T01:21:29.122Z,0.00
2023-04-02T01:22:29.370Z,0.00
2023-04-02T01:23:29.363Z,0.00
2023-04-02T01:24:29.152Z,0.00
2023-04-02T01:25:28.969Z,0.00
2023-04-02T01:26:29.386Z,0.00
2023-04-02T01:27:29.384Z,0.00
2023-04-02T01:28:29.412Z,0.00
2023-04-02T01:29:29.023Z,0.00
2023-04-02T01:30:29.196Z,0.00
2023-04-02T01:31:29.455Z,0.00
2023-04-02T01:32:29.644Z,0.00
2023-04-02T01:33:28.858Z,0.00
2023-04-02T01:34:28.882Z,0.00
2023-04-02T01:35:29.036Z,0.00
2023-04-02T01:36:29.666Z,0.00
2023-04-02T01:37:29.669Z,0.00
2023-04-02T01:38:28.830Z,0.00
2023-04-02T01:39:29.655Z,0.00
2023-04-02T01:40:29.071Z,0.00
2023-04-02T01:41:28.795Z,0.00
2023-04-02T01:42:28.850Z,0.00
2023-04-02T01:43:28.820Z,0.00
2023-04-02T01:44:29.069Z,0.00
2023-04-02T01:45:29.723Z,0.00
2023-04-02T01:46:28.795Z,0.00
2023-04-02T01:47:29.166Z,0.00
2023-04-02T01:48:29.305Z,0.00
2023-04-02T01:49:29.132Z,0.00
2023-04-02T01:50:28.759Z,0.00
2023-04-02T01:51:28.752Z,0.00
2023-04-02T01:52:28.744Z,0.00
2023-04-02T01:53:28.749Z,0.00
2023-04-02T01:54:28.786Z,0.00
2023-04-02T01:55:28.730Z,0.00
2023-04-02T01:56:28.777Z,0.00
2023-04-02T01:57:29.022Z,0.00
2023-04-02T01:58:28.963Z,0.00
2023-04-02T01:59:29.003Z,0.00
2023-04-02T02:00:28.990Z,0.00
2023-04-02T02:01:28.806Z,0.00
2023-04-02T02:02:28.866Z,0.00
2023-04-02T02:03:29.199Z,0.00
2023-04-02T02:04:28.930Z,0.00
2023-04-02T02:05:28.799Z,0.00
2023-04-02T02:06:29.426Z,0.00
2023-04-02T02:07:28.650Z,0.00
2023-04-02T02:08:28.647Z,0.00
2023-04-02T02:09:28.620Z,0.00
2023-04-02T02:10:28.628Z,0.00
2023-04-02T02:11:28.636Z,0.00
2023-04-02T02:12:28.639Z,0.00
2023-04-02T02:13:28.588Z,0.00
2023-04-02T02:14:28.658Z,0.00
2023-04-02T02:15:28.685Z,0.00
2023-04-02T02:16:28.726Z,0.00
2023-04-02T02:17:28.743Z,0.00
2023-04-02T02:18:28.744Z,0.00
2023-04-02T02:19:28.735Z,0.00
2023-04-02T02:20:28.735Z,0.00
2023-04-02T02:21:28.741Z,0.00
2023-04-02T02:22:28.767Z,0.00
2023-04-02T02:23:28.919Z,0.00
2023-04-02T02:24:28.529Z,0.00
2023-04-02T02:25:28.730Z,0.00
2023-04-02T02:26:28.946Z,0.00
2023-04-02T02:27:28.978Z,0.00
2023-04-02T02:28:28.953Z,0.00
2023-04-02T02:29:28.562Z,0.00
2023-04-02T02:30:28.555Z,0.00
2023-04-02T02:31:28.591Z,0.00
2023-04-02T02:32:28.520Z,0.00
2023-04-02T02:33:28.585Z,0.00
2023-04-02T02:34:28.586Z,0.00
2023-04-02T02:35:28.658Z,0.00
2023-04-02T02:36:28.862Z,0.00
2023-04-02T02:37:28.462Z,0.00
2023-04-02T02:38:28.620Z,0.00
2023-04-02T02:39:28.826Z,0.00
2023-04-02T02:40:28.878Z,0.00
2023-04-02T02:41:29.068Z,0.00
2023-04-02T02:42:28.438Z,0.00
2023-04-02T02:43:29.072Z,0.00
2023-04-02T02:44:28.704Z,0.00
2023-04-02T02:45:29.070Z,0.00
2023-04-02T02:46:28.674Z,0.00
2023-04-02T02:47:29.150Z,0.00
2023-04-02T02:48:28.468Z,0.00
2023-04-02T02:49:28.427Z,0.00
2023-04-02T02:50:28.538Z,0.00
2023-04-02T02:51:28.354Z,0.00
2023-04-02T02:52:28.549Z,0.00
2023-04-02T02:53:28.829Z,0.00
2023-04-02T02:54:28.965Z,0.00
2023-04-02T02:55:29.129Z,0.00
2023-04-02T02:56:28.925Z,0.00
2023-04-02T02:57:28.943Z,0.00
2023-04-02T02:58:28.388Z,0.00
2023-04-02T02:59:28.478Z,0.00
2023-04-02T03:00:28.395Z,0.00
2023-04-02T03:01:28.394Z,0.00
2023-04-02T03:02:28.499Z,0.00
2023-04-02T03:03:28.668Z,0.00
2023-04-02T03:04:28.398Z,0.00
2023-04-02T03:05:28.590Z,0.00
2023-04-02T03:06:28.595Z,0.00
2023-04-02T03:07:28.653Z,0.00
2023-04-02T03:08:28.261Z,0.00
2023-04-02T03:09:28.258Z,0.00
2023-04-02T03:10:28.224Z,0.00
2023-04-02T03:11:28.261Z,0.00
2023-04-02T03:12:28.437Z,0.00
2023-04-02T03:13:28.430Z,0.00
2023-04-02T03:14:28.279Z,0.00
2023-04-02T03:15:28.339Z,0.00
2023-04-02T03:16:28.508Z,0.00
2023-04-02T03:17:28.277Z,0.00
2023-04-02T03:18:28.263Z,0.00
2023-04-02T03:19:28.261Z,0.00
2023-04-02T03:20:28.495Z,0.00
2023-04-02T03:21:28.318Z,0.00
2023-04-02T03:22:28.277Z,0.00
2023-04-02T03:23:28.487Z,0.00
2023-04-02T03:24:28.714Z,0.00
2023-04-02T03:25:28.144Z,0.00
2023-04-02T03:26:28.308Z,0.00
2023-04-02T03:27:28.159Z,0.00
2023-04-02T03:28:28.339Z,0.00
2023-04-02T03:29:28.335Z,0.00
2023-04-02T03:30:28.120Z,0.00
2023-04-02T03:31:28.416Z,0.00
2023-04-02T03:32:28.171Z,0.00
2023-04-02T03:33:28.973Z,0.00
2023-04-02T03:34:28.163Z,0.00
2023-04-02T03:35:28.779Z,0.00
2023-04-02T03:36:28.941Z,0.00
2023-04-02T03:37:29.092Z,0.00
2023-04-02T03:38:28.590Z,0.00
2023-04-02T03:39:28.872Z,0.00
2023-04-02T03:40:28.476Z,0.00
2023-04-02T03:41:28.202Z,0.00
2023-04-02T03:42:28.017Z,0.00
2023-04-02T03:43:28.484Z,0.00
2023-04-02T03:44:28.022Z,0.00
2023-04-02T03:45:28.226Z,0.00
2023-04-02T03:46:28.109Z,0.00
2023-04-02T03:47:27.994Z,0.00
2023-04-02T03:48:28.041Z,0.00
2023-04-02T03:49:28.045Z,0.00
2023-04-02T03:50:28.070Z,0.00
2023-04-02T03:51:28.052Z,0.00
2023-04-02T03:52:28.080Z,0.00
2023-04-02T03:53:28.109Z,0.00
2023-04-02T03:54:28.125Z,0.00
2023-04-02T03:55:28.179Z,0.00
2023-04-02T03:56:28.052Z,0.00
2023-04-02T03:57:27.987Z,0.00
2023-04-02T03:58:28.188Z,0.00
2023-04-02T03:59:27.932Z,0.00
2023-04-02T04:00:28.404Z,0.00
2023-04-02T04:01:28.333Z,0.00
2023-04-02T04:02:28.637Z,0.00
2023-04-02T04:03:28.585Z,0.00
2023-04-02T04:04:28.227Z,0.00
2023-04-02T04:05:28.658Z,0.00
2023-04-02T04:06:28.787Z,0.00
2023-04-02T04:07:28.166Z,0.00
2023-04-02T04:08:28.455Z,0.00
2023-04-02T04:09:27.882Z,0.00
2023-04-02T04:10:28.730Z,0.00
2023-04-02T04:11:28.711Z,0.00
2023-04-02T04:12:27.990Z,0.00
2023-04-02T04:13:28.201Z,0.00
2023-04-02T04:14:28.096Z,0.00
2023-04-02T04:15:28.762Z,0.00
2023-04-02T04:16:27.852Z,0.00
2023-04-02T04:17:28.267Z,0.00
2023-04-02T04:18:28.321Z,0.00
2023-04-02T04:19:28.646Z,0.00
2023-04-02T04:20:27.930Z,0.00
2023-04-02T04:21:27.753Z,0.00
2023-04-02T04:22:27.757Z,0.00
2023-04-02T04:23:27.742Z,0.00
2023-04-02T04:24:27.868Z,0.00
2023-04-02T04:25:27.870Z,0.00
2023-04-02T04:26:27.876Z,0.00
2023-04-02T04:27:27.803Z,0.00
2023-04-02T04:28:27.980Z,0.00
2023-04-02T04:29:28.103Z,0.00
2023-04-02T04:30:27.898Z,0.00
2023-04-02T04:31:28.161Z,0.00
2023-04-02T04:32:28.163Z,0.00
2023-04-02T04:33:28.219Z,0.00
2023-04-02T04:34:28.345Z,0.00
2023-04-02T04:35:27.769Z,0.00
2023-04-02T04:36:27.648Z,0.00
2023-04-02T04:37:27.665Z,0.00
2023-04-02T04:38:27.702Z,0.00
2023-04-02T04:39:27.637Z,0.00
2023-04-02T04:40:27.662Z,0.00
2023-04-02T04:41:27.670Z,0.00
2023-04-02T04:42:27.646Z,0.00
2023-04-02T04:43:27.678Z,0.00
2023-04-02T04:44:27.681Z,0.00
2023-04-02T04:45:27.702Z,0.00
2023-04-02T04:46:27.689Z,0.00
2023-04-02T04:47:27.633Z,0.00
2023-04-02T04:48:27.633Z,0.00
2023-04-02T04:49:27.572Z,0.00
2023-04-02T04:50:27.642Z,0.00
2023-04-02T04:51:27.637Z,0.00
2023-04-02T04:52:27.644Z,0.00
2023-04-02T04:53:27.538Z,0.00
2023-04-02T04:54:27.670Z,0.00
2023-04-02T04:55:27.686Z,0.00
2023-04-02T04:56:27.565Z,0.00
2023-04-02T04:57:27.635Z,0.00
2023-04-02T04:58:27.499Z,0.00
2023-04-02T04:59:27.598Z,0.00
2023-04-02T05:00:27.611Z,0.00
2023-04-02T05:01:27.771Z,0.00
2023-04-02T05:02:27.706Z,0.00
2023-04-02T05:03:27.800Z,0.00
2023-04-02T05:04:27.534Z,0.00
2023-04-02T05:05:27.805Z,0.00
2023-04-02T05:06:27.821Z,0.00
2023-04-02T05:07:27.530Z,0.00
2023-04-02T05:08:27.633Z,0.00
2023-04-02T05:09:27.849Z,0.00
2023-04-02T05:10:27.874Z,0.00
2023-04-02T05:11:27.451Z,0.00
2023-04-02T05:12:27.665Z,0.00
2023-04-02T05:13:27.431Z,0.00
2023-04-02T05:14:27.430Z,0.00
2023-04-02T05:15:27.412Z,5.62
2023-04-02T05:16:27.582Z,5.62
2023-04-02T05:17:27.492Z,5.62
2023-04-02T05:18:27.401Z,5.62
2023-04-02T05:19:27.488Z,5.62
2023-04-02T05:20:28.808Z,5.62
2023-04-02T05:21:27.478Z,5.62
2023-04-02T05:22:27.346Z,5.62
2023-04-02T05:23:27.437Z,5.62
2023-04-02T05:24:27.513Z,5.62
2023-04-02T05:25:27.496Z,5.62
2023-04-02T05:26:27.358Z,5.62
2023-04-02T05:27:27.560Z,5.62
2023-04-02T05:28:27.564Z,5.62
2023-04-02T05:29:27.587Z,5.62
2023-04-02T05:30:27.583Z,11.25
2023-04-02T05:31:27.407Z,11.25
2023-04-02T05:32:27.374Z,11.25
2023-04-02T05:33:27.322Z,11.25
2023-04-02T05:34:27.315Z,11.25
2023-04-02T05:35:27.303Z,11.25
2023-04-02T05:36:27.465Z,11.25
2023-04-02T05:37:27.438Z,11.25
2023-04-02T05:38:27.444Z,11.25
2023-04-02T05:39:27.681Z,16.88
2023-04-02T05:40:27.554Z,16.88
2023-04-02T05:41:27.349Z,16.88
2023-04-02T05:42:27.252Z,16.88
2023-04-02T05:43:27.359Z,16.88
2023-04-02T05:44:27.683Z,16.88
2023-04-02T05:45:27.508Z,16.88
2023-04-02T05:46:27.230Z,16.88
2023-04-02T05:47:27.336Z,22.50
2023-04-02T05:48:27.691Z,22.50
2023-04-02T05:49:27.695Z,22.50
2023-04-02T05:50:27.517Z,22.50
2023-04-02T05:51:27.333Z,22.50
2023-04-02T05:52:27.829Z,22.50
2023-04-02T05:53:27.220Z,22.50
2023-04-02T05:54:27.836Z,22.50
2023-04-02T05:55:27.118Z,22.50
2023-04-02T05:56:27.855Z,22.50
2023-04-02T05:57:41.706Z,28.12
2023-04-02T05:59:27.172Z,28.12
2023-04-02T06:00:27.879Z,28.12
2023-04-02T06:01:27.683Z,28.12
2023-04-02T06:02:27.698Z,33.75
2023-04-02T06:03:27.472Z,33.75
2023-04-02T06:04:27.419Z,33.75
2023-04-02T06:05:27.098Z,33.75
2023-04-02T06:06:27.622Z,39.38
2023-04-02T06:07:27.220Z,39.38
2023-04-02T06:08:27.527Z,45.00
2023-04-02T06:09:27.238Z,45.00
2023-04-02T06:10:27.055Z,45.00
2023-04-02T06:11:27.047Z,50.62
2023-04-02T06:12:27.138Z,45.00
2023-04-02T06:13:27.159Z,50.62
2023-04-02T06:14:27.284Z,56.25
2023-04-02T06:15:27.021Z,50.62
2023-04-02T06:16:27.193Z,56.25
2023-04-02T06:17:27.049Z,50.62
2023-04-02T06:18:27.376Z,56.25
2023-04-02T06:19:26.984Z,56.25
2023-04-02T06:20:26.981Z,61.88
2023-04-02T06:21:26.992Z,67.50
2023-04-02T06:22:26.999Z,73.12
2023-04-02T06:23:27.018Z,73.12
2023-04-02T06:24:26.945Z,73.12
2023-04-02T06:25:27.032Z,67.50
2023-04-02T06:26:26.956Z,67.50
2023-04-02T06:27:26.967Z,73.12
2023-04-02T06:28:26.977Z,78.75
2023-04-02T06:29:26.958Z,84.38
2023-04-02T06:30:27.085Z,90.00
2023-04-02T06:31:27.089Z,90.00
2023-04-02T06:32:27.291Z,90.00
2023-04-02T06:33:26.895Z,84.38
2023-04-02T06:34:26.869Z,84.38
2023-04-02T06:35:27.215Z,84.38
2023-04-02T06:36:26.891Z,90.00
2023-04-02T06:37:26.892Z,90.00
2023-04-02T06:38:27.232Z,90.00
2023-04-02T06:39:27.253Z,95.62
2023-04-02T06:40:26.896Z,101.25
2023-04-02T06:41:27.292Z,101.25
2023-04-02T06:42:27.261Z,101.25
2023-04-02T06:43:27.274Z,112.50
2023-04-02T06:44:26.870Z,112.50
2023-04-02T06:45:26.958Z,118.12
2023-04-02T06:46:26.934Z,118.12
2023-04-02T06:47:26.919Z,118.12
2023-04-02T06:48:26.894Z,118.12
2023-04-02T06:49:26.804Z,118.12
2023-04-02T06:50:27.056Z,118.12
2023-04-02T06:51:26.989Z,112.50
2023-04-02T06:52:27.022Z,112.50
2023-04-02T06:53:27.134Z,118.12
2023-04-02T06:54:26.934Z,118.12
2023-04-02T06:55:27.181Z,118.12
2023-04-02T06:56:27.234Z,118.12
2023-04-02T06:57:27.012Z,118.12
2023-04-02T06:58:27.379Z,118.12
2023-04-02T06:59:26.762Z,118.12
2023-04-02T07:00:27.391Z,118.12
2023-04-02T07:01:27.230Z,123.75
2023-04-02T07:02:26.819Z,129.38
2023-04-02T07:03:27.227Z,129.38
2023-04-02T07:04:26.872Z,129.38
2023-04-02T07:05:26.802Z,135.00
2023-04-02T07:06:27.030Z,135.00
2023-04-02T07:07:26.717Z,140.62
2023-04-02T07:08:27.527Z,140.62
2023-04-02T07:09:26.829Z,146.25
2023-04-02T07:10:27.320Z,146.25
2023-04-02T07:11:26.700Z,146.25
2023-04-02T07:12:27.466Z,135.00
2023-04-02T07:13:27.552Z,135.00
2023-04-02T07:14:26.865Z,135.00
2023-04-02T07:15:26.933Z,129.38
2023-04-02T07:16:26.769Z,129.38
2023-04-02T07:17:27.460Z,129.38
2023-04-02T07:18:26.688Z,123.75
2023-04-02T07:19:26.899Z,123.75
2023-04-02T07:20:26.803Z,123.75
2023-04-02T07:21:26.590Z,118.12
2023-04-02T07:22:26.581Z,123.75
2023-04-02T07:23:26.592Z,123.75
2023-04-02T07:24:26.588Z,123.75
2023-04-02T07:25:26.603Z,123.75
2023-04-02T07:26:26.762Z,123.75
2023-04-02T07:27:26.788Z,129.38
2023-04-02T07:28:26.806Z,123.75
2023-04-02T07:29:26.567Z,123.75
2023-04-02T07:30:26.798Z,123.75
2023-04-02T07:31:26.908Z,129.38
2023-04-02T07:32:26.611Z,123.75
2023-04-02T07:33:26.799Z,129.38
2023-04-02T07:34:26.793Z,129.38
2023-04-02T07:35:27.076Z,129.38
2023-04-02T07:36:26.499Z,135.00
2023-04-02T07:37:26.510Z,135.00
2023-04-02T07:38:26.623Z,135.00
2023-04-02T07:39:26.471Z,146.25
2023-04-02T07:40:26.900Z,146.25
2023-04-02T07:41:26.457Z,151.88
2023-04-02T07:42:26.503Z,151.88
2023-04-02T07:43:26.470Z,157.50
2023-04-02T07:44:26.456Z,151.88
2023-04-02T07:45:26.429Z,168.75
2023-04-02T07:46:26.578Z,163.12
2023-04-02T07:47:26.546Z,163.12
2023-04-02T07:48:26.705Z,157.50
2023-04-02T07:49:27.314Z,157.50
2023-04-02T07:50:26.500Z,157.50
2023-04-02T07:51:27.234Z,163.12
2023-04-02T07:52:27.404Z,168.75
2023-04-02T07:53:26.361Z,174.38
2023-04-02T07:54:27.154Z,174.38
2023-04-02T07:55:26.821Z,185.62
2023-04-02T07:56:26.635Z,180.00
2023-04-02T07:57:26.821Z,174.38
2023-04-02T07:58:27.210Z,174.38
2023-04-02T07:59:26.352Z,185.62
2023-04-02T08:00:26.362Z,185.62
2023-04-02T08:01:26.372Z,185.62
2023-04-02T08:02:26.453Z,191.25
2023-04-02T08:03:26.528Z,191.25
2023-04-02T08:04:26.437Z,191.25
2023-04-02T08:05:26.602Z,196.88
2023-04-02T08:06:26.607Z,196.88
2023-04-02T08:07:26.267Z,202.50
2023-04-02T08:08:26.280Z,196.88
2023-04-02T08:09:26.464Z,196.88
2023-04-02T08:10:26.835Z,196.88
2023-04-02T08:11:26.484Z,202.50
2023-04-02T08:12:26.482Z,208.12
2023-04-02T08:13:26.864Z,208.12
2023-04-02T08:14:26.464Z,208.12
2023-04-02T08:15:26.257Z,213.75
2023-04-02T08:16:26.688Z,219.38
2023-04-02T08:17:27.101Z,213.75
2023-04-02T08:18:27.107Z,208.12
2023-04-02T08:19:26.318Z,208.12
2023-04-02T08:20:26.322Z,213.75
2023-04-02T08:21:26.249Z,208.12
2023-04-02T08:22:26.350Z,208.12
2023-04-02T08:23:26.376Z,208.12
2023-04-02T08:24:26.541Z,225.00
2023-04-02T08:25:26.395Z,202.50
2023-04-02T08:26:26.511Z,202.50
2023-04-02T08:27:26.142Z,202.50
2023-04-02T08:28:26.609Z,196.88
2023-04-02T08:29:26.779Z,213.75
2023-04-02T08:30:26.370Z,230.62
2023-04-02T08:31:26.856Z,230.62
2023-04-02T08:32:26.622Z,230.62
2023-04-02T08:33:26.389Z,236.25
2023-04-02T08:34:26.595Z,247.50
2023-04-02T08:35:26.128Z,253.12
2023-04-02T08:36:26.716Z,258.75
2023-04-02T08:37:26.063Z,258.75
2023-04-02T08:38:26.062Z,264.38
2023-04-02T08:39:26.219Z,258.75
2023-04-02T08:40:26.227Z,270.00
2023-04-02T08:41:26.235Z,253.12
2023-04-02T08:42:26.253Z,264.38
2023-04-02T08:43:26.250Z,264.38
2023-04-02T08:44:26.466Z,270.00
2023-04-02T08:45:26.469Z,281.25
2023-04-02T08:46:26.527Z,292.50
2023-04-02T08:47:26.523Z,286.88
2023-04-02T08:48:26.021Z,292.50
2023-04-02T08:49:26.704Z,292.50
2023-04-02T08:50:26.005Z,303.75
2023-04-02T08:51:26.100Z,303.75
2023-04-02T08:52:26.111Z,292.50
2023-04-02T08:53:25.943Z,309.38
2023-04-02T08:54:25.989Z,315.00
2023-04-02T08:55:26.148Z,309.38
2023-04-02T08:56:25.936Z,292.50
2023-04-02T08:57:25.958Z,281.25
2023-04-02T08:58:25.941Z,292.50
2023-04-02T08:59:25.989Z,326.25
2023-04-02T09:00:25.908Z,337.50
2023-04-02T09:01:25.929Z,326.25
2023-04-02T09:02:26.017Z,326.25
2023-04-02T09:03:26.202Z,337.50
2023-04-02T09:04:25.919Z,343.12
2023-04-02T09:05:25.872Z,354.38
2023-04-02T09:06:25.860Z,365.62
2023-04-02T09:07:25.888Z,365.62
2023-04-02T09:08:25.923Z,360.00
2023-04-02T09:09:25.918Z,393.75
2023-04-02T09:10:25.935Z,360.00
2023-04-02T09:11:25.847Z,371.25
2023-04-02T09:12:25.997Z,388.12
2023-04-02T09:13:25.916Z,410.62
2023-04-02T09:14:25.838Z,393.75
2023-04-02T09:15:25.810Z,399.38
2023-04-02T09:16:25.918Z,382.50
2023-04-02T09:17:25.885Z,376.88
2023-04-02T09:18:26.142Z,376.88
2023-04-02T09:19:25.771Z,399.38
2023-04-02T09:20:25.778Z,399.38
2023-04-02T09:21:26.074Z,371.25
2023-04-02T09:22:25.902Z,399.38
2023-04-02T09:23:26.178Z,427.50
2023-04-02T09:24:25.731Z,376.88
2023-04-02T09:25:25.736Z,388.12
2023-04-02T09:26:25.736Z,382.50
2023-04-02T09:27:25.775Z,376.88
2023-04-02T09:28:25.744Z,371.25
2023-04-02T09:29:25.693Z,365.62
2023-04-02T09:30:25.721Z,360.00
2023-04-02T09:31:25.799Z,376.88
2023-04-02T09:32:25.781Z,365.62
2023-04-02T09:33:25.738Z,382.50
2023-04-02T09:34:25.670Z,393.75
2023-04-02T09:35:27.017Z,376.88
2023-04-02T09:36:25.694Z,410.62
2023-04-02T09:37:25.720Z,416.25
2023-04-02T09:38:25.808Z,421.88
2023-04-02T09:39:25.818Z,433.12
2023-04-02T09:40:25.889Z,438.75
2023-04-02T09:41:25.654Z,438.75
2023-04-02T09:42:25.647Z,444.38
2023-04-02T09:43:25.889Z,438.75
2023-04-02T09:44:25.632Z,416.25
2023-04-02T09:45:25.692Z,399.38
2023-04-02T09:46:25.701Z,365.62
2023-04-02T09:47:25.881Z,343.12
2023-04-02T09:48:25.883Z,343.12
2023-04-02T09:49:25.745Z,337.50
2023-04-02T09:50:25.763Z,343.12
2023-04-02T09:51:25.718Z,343.12
2023-04-02T09:52:25.719Z,320.62
2023-04-02T09:53:25.754Z,315.00
2023-04-02T09:54:25.745Z,315.00
2023-04-02T09:55:25.943Z,326.25
2023-04-02T09:56:25.953Z,309.38
2023-04-02T09:57:26.022Z,326.25
2023-04-02T09:58:25.972Z,354.38
2023-04-02T09:59:25.552Z,348.75
2023-04-02T10:00:39.604Z,360.00
2023-04-02T10:01:25.627Z,365.62
2023-04-02T10:02:26.007Z,371.25
2023-04-02T10:03:25.690Z,393.75
2023-04-02T10:04:26.426Z,410.62
2023-04-02T10:05:39.418Z,421.88
2023-04-02T10:06:25.620Z,421.88
2023-04-02T10:07:25.636Z,416.25
2023-04-02T10:08:25.630Z,405.00
2023-04-02T10:09:25.637Z,393.75
2023-04-02T10:10:26.375Z,388.12
2023-04-02T10:11:30.812Z,393.75
2023-04-02T10:12:25.660Z,433.12
2023-04-02T10:13:25.872Z,438.75
2023-04-02T10:14:25.449Z,444.38
2023-04-02T10:15:25.882Z,433.12
2023-04-02T10:16:27.124Z,444.38
2023-04-02T10:17:25.481Z,438.75
2023-04-02T10:18:25.470Z,450.00
2023-04-02T10:19:25.484Z,438.75
2023-04-02T10:20:25.895Z,416.25
2023-04-02T10:21:26.122Z,405.00
2023-04-02T10:22:26.351Z,416.25
2023-04-02T10:23:25.497Z,405.00
2023-04-02T10:24:26.363Z,393.75
2023-04-02T10:25:26.273Z,376.88
2023-04-02T10:26:25.545Z,376.88
2023-04-02T10:27:25.341Z,388.12
2023-04-02T10:28:25.337Z,416.25
2023-04-02T10:29:25.338Z,388.12
2023-04-02T10:30:25.352Z,382.50
2023-04-02T10:31:25.565Z,382.50
2023-04-02T10:32:25.394Z,410.62
2023-04-02T10:33:25.377Z,416.25
2023-04-02T10:34:25.429Z,427.50
2023-04-02T10:35:25.409Z,438.75
2023-04-02T10:36:25.394Z,433.12
2023-04-02T10:37:25.394Z,410.62
2023-04-02T10:38:25.402Z,421.88
2023-04-02T10:39:25.416Z,416.25
2023-04-02T10:40:25.355Z,444.38
2023-04-02T10:41:25.420Z,444.38
2023-04-02T10:42:25.421Z,427.50
2023-04-02T10:43:25.258Z,421.88
2023-04-02T10:44:25.232Z,438.75
2023-04-02T10:45:25.263Z,450.00
2023-04-02T10:46:25.841Z,444.38
2023-04-02T10:47:25.460Z,450.00
2023-04-02T10:48:25.473Z,466.88
2023-04-02T10:49:25.329Z,466.88
2023-04-02T10:50:25.486Z,450.00
2023-04-02T10:51:25.280Z,438.75
2023-04-02T10:52:25.696Z,444.38
2023-04-02T10:53:25.504Z,461.25
2023-04-02T10:54:25.708Z,461.25
2023-04-02T10:55:25.308Z,483.75
2023-04-02T10:56:25.718Z,495.00
2023-04-02T10:57:25.175Z,466.88
2023-04-02T10:58:25.148Z,472.50
2023-04-02T10:59:25.736Z,495.00
2023-04-02T11:00:25.151Z,511.88
2023-04-02T11:01:25.176Z,523.12
2023-04-02T11:02:25.233Z,540.00
2023-04-02T11:03:25.240Z,545.62
2023-04-02T11:04:25.185Z,517.50
2023-04-02T11:05:25.189Z,495.00
2023-04-02T11:06:25.068Z,483.75
2023-04-02T11:07:25.213Z,500.62
2023-04-02T11:08:25.406Z,495.00
2023-04-02T11:09:25.423Z,489.38
2023-04-02T11:10:25.407Z,506.25
2023-04-02T11:11:25.441Z,483.75
2023-04-02T11:12:25.073Z,478.12
2023-04-02T11:13:25.046Z,483.75
2023-04-02T11:14:25.545Z,495.00
2023-04-02T11:15:25.046Z,495.00
2023-04-02T11:16:25.094Z,495.00
2023-04-02T11:17:25.714Z,500.62
2023-04-02T11:18:25.044Z,506.25
2023-04-02T11:19:25.672Z,517.50
2023-04-02T11:20:25.049Z,523.12
2023-04-02T11:21:25.696Z,540.00
2023-04-02T11:22:25.270Z,511.88
2023-04-02T11:23:25.832Z,511.88
2023-04-02T11:24:25.904Z,489.38
2023-04-02T11:25:25.093Z,472.50
2023-04-02T11:26:25.316Z,455.62
2023-04-02T11:27:25.717Z,455.62
2023-04-02T11:28:25.871Z,455.62
2023-04-02T11:29:25.768Z,461.25
2023-04-02T11:30:25.320Z,472.50
2023-04-02T11:31:24.968Z,489.38
2023-04-02T11:32:25.764Z,478.12
2023-04-02T11:33:34.115Z,483.75
2023-04-02T11:34:24.939Z,500.62
2023-04-02T11:35:25.179Z,495.00
2023-04-02T11:36:24.929Z,478.12
2023-04-02T11:37:26.018Z,472.50
2023-04-02T11:38:25.660Z,483.75
2023-04-02T11:39:24.981Z,500.62
2023-04-02T11:40:24.865Z,540.00
2023-04-02T11:41:24.905Z,556.88
2023-04-02T11:42:25.027Z,534.38
2023-04-02T11:43:25.028Z,523.12
2023-04-02T11:44:25.223Z,540.00
2023-04-02T11:45:25.226Z,573.75
2023-04-02T11:46:24.838Z,624.38
2023-04-02T11:47:25.111Z,607.50
2023-04-02T11:48:24.871Z,601.88
2023-04-02T11:49:24.876Z,624.38
2023-04-02T11:50:25.456Z,613.12
2023-04-02T11:51:25.472Z,613.12
2023-04-02T11:52:25.472Z,663.75
2023-04-02T11:53:25.506Z,680.62
2023-04-02T11:54:25.125Z,669.38
2023-04-02T11:55:25.312Z,663.75
2023-04-02T11:56:25.697Z,675.00
2023-04-02T11:57:25.645Z,658.12
2023-04-02T11:58:24.710Z,663.75
2023-04-02T11:59:24.710Z,663.75
2023-04-02T12:00:24.721Z,630.00
2023-04-02T12:01:24.729Z,607.50
2023-04-02T12:02:25.000Z,579.38
2023-04-02T12:03:24.945Z,556.88
2023-04-02T12:04:24.942Z,556.88
2023-04-02T12:05:24.983Z,573.75
2023-04-02T12:06:24.955Z,585.00
2023-04-02T12:07:24.993Z,568.12
2023-04-02T12:08:25.184Z,573.75
2023-04-02T12:09:25.197Z,590.62
2023-04-02T12:10:24.763Z,607.50
2023-04-02T12:11:24.809Z,624.38
2023-04-02T12:12:24.630Z,630.00
2023-04-02T12:13:24.607Z,624.38
2023-04-02T12:14:24.583Z,624.38
2023-04-02T12:15:24.594Z,675.00
2023-04-02T12:16:24.640Z,618.75
2023-04-02T12:17:24.679Z,585.00
2023-04-02T12:18:24.592Z,787.50
2023-04-02T12:19:24.825Z,855.00
2023-04-02T12:20:24.830Z,815.62
2023-04-02T12:21:24.546Z,753.75
2023-04-02T12:22:24.690Z,714.38
2023-04-02T12:23:24.556Z,675.00
2023-04-02T12:24:24.521Z,652.50
2023-04-02T12:25:24.554Z,680.62
2023-04-02T12:26:24.512Z,703.12
2023-04-02T12:27:24.524Z,770.62
2023-04-02T12:28:25.316Z,945.00
2023-04-02T12:29:25.296Z,1518.75
2023-04-02T12:30:25.301Z,2430.00
2023-04-02T12:31:24.508Z,2621.25
2023-04-02T12:32:26.683Z,1726.88
2023-04-02T12:33:25.504Z,1068.75
2023-04-02T12:34:25.407Z,950.62
2023-04-02T12:35:25.311Z,933.75
2023-04-02T12:36:25.470Z,866.25
2023-04-02T12:37:25.076Z,843.75
2023-04-02T12:38:25.274Z,860.62
2023-04-02T12:39:27.952Z,984.38
2023-04-02T12:40:25.348Z,832.50
2023-04-02T12:41:25.244Z,866.25
2023-04-02T12:42:25.398Z,905.62
2023-04-02T12:43:24.437Z,1057.50
2023-04-02T12:44:24.442Z,1057.50
2023-04-02T12:45:27.240Z,961.88
2023-04-02T12:46:25.321Z,871.88
2023-04-02T12:47:25.190Z,787.50
2023-04-02T12:48:25.349Z,759.38
2023-04-02T12:49:25.714Z,787.50
2023-04-02T12:50:25.146Z,821.25
2023-04-02T12:51:25.382Z,798.75
2023-04-02T12:52:24.344Z,866.25